/AccessibleButton.idl/1.5/Thu Sep  9 15:36:02 2004//TSRC680_m108
/AccessibleCheckBox.idl/1.5/Thu Sep  9 15:36:15 2004//TSRC680_m108
/AccessibleComboBox.idl/1.7/Thu Sep  9 15:36:28 2004//TSRC680_m108
/AccessibleDropDownComboBox.idl/1.7/Thu Sep  9 15:36:40 2004//TSRC680_m108
/AccessibleDropDownListBox.idl/1.7/Thu Sep  9 15:36:53 2004//TSRC680_m108
/AccessibleEdit.idl/1.5/Thu Sep  9 15:37:06 2004//TSRC680_m108
/AccessibleFixedText.idl/1.7/Thu Sep  9 15:37:18 2004//TSRC680_m108
/AccessibleIconChoiceControl.idl/1.7/Thu Sep  9 15:37:31 2004//TSRC680_m108
/AccessibleIconChoiceControlEntry.idl/1.8/Thu Sep  9 15:37:44 2004//TSRC680_m108
/AccessibleList.idl/1.7/Thu Sep  9 15:37:57 2004//TSRC680_m108
/AccessibleListBox.idl/1.7/Thu Sep  9 15:38:10 2004//TSRC680_m108
/AccessibleListBoxList.idl/1.5/Thu Sep  9 15:38:23 2004//TSRC680_m108
/AccessibleListItem.idl/1.8/Thu Sep  9 15:38:36 2004//TSRC680_m108
/AccessibleMenu.idl/1.5/Thu Sep  9 15:38:50 2004//TSRC680_m108
/AccessibleMenuBar.idl/1.5/Thu Sep  9 15:39:02 2004//TSRC680_m108
/AccessibleMenuItem.idl/1.5/Thu Sep  9 15:39:15 2004//TSRC680_m108
/AccessibleMenuSeparator.idl/1.6/Thu Sep  9 15:39:27 2004//TSRC680_m108
/AccessiblePopupMenu.idl/1.5/Thu Sep  9 15:39:40 2004//TSRC680_m108
/AccessibleRadioButton.idl/1.5/Thu Sep  9 15:39:53 2004//TSRC680_m108
/AccessibleScrollBar.idl/1.5/Thu Sep  9 15:40:06 2004//TSRC680_m108
/AccessibleStatusBar.idl/1.5/Thu Sep  9 15:40:18 2004//TSRC680_m108
/AccessibleStatusBarItem.idl/1.5/Thu Sep  9 15:40:31 2004//TSRC680_m108
/AccessibleTabBar.idl/1.5/Thu Sep  9 15:40:44 2004//TSRC680_m108
/AccessibleTabBarPage.idl/1.5/Thu Sep  9 15:40:56 2004//TSRC680_m108
/AccessibleTabBarPageList.idl/1.5/Thu Sep  9 15:41:17 2004//TSRC680_m108
/AccessibleTabControl.idl/1.5/Thu Sep  9 15:41:32 2004//TSRC680_m108
/AccessibleTabPage.idl/1.6/Thu Sep  9 15:41:45 2004//TSRC680_m108
/AccessibleTextField.idl/1.6/Thu Sep  9 15:41:56 2004//TSRC680_m108
/AccessibleToolBox.idl/1.8/Thu Sep  9 15:42:08 2004//TSRC680_m108
/AccessibleToolBoxItem.idl/1.6/Thu Sep  9 15:42:22 2004//TSRC680_m108
/AccessibleTreeListBox.idl/1.8/Thu Sep  9 15:42:34 2004//TSRC680_m108
/AccessibleTreeListBoxEntry.idl/1.8/Thu Sep  9 15:42:46 2004//TSRC680_m108
/AccessibleWindow.idl/1.5/Thu Sep  9 15:42:58 2004//TSRC680_m108
/ActionEvent.idl/1.9/Thu Jun  3 17:02:44 2004//TSRC680_m108
/AdjustmentEvent.idl/1.5/Thu Jun  3 17:02:57 2004//TSRC680_m108
/AdjustmentType.idl/1.5/Thu Jun  3 17:03:14 2004//TSRC680_m108
/CharSet.idl/1.10/Thu Jun  3 17:03:29 2004//TSRC680_m108
/Command.idl/1.2/Thu Sep  9 15:43:08 2004//TSRC680_m108
/DeviceCapability.idl/1.9/Thu Jun  3 17:03:43 2004//TSRC680_m108
/DeviceInfo.idl/1.9/Thu Jun  3 17:03:56 2004//TSRC680_m108
/DialogProvider.idl/1.2/Tue Feb 10 15:54:15 2004//TSRC680_m108
/DockingData.idl/1.2/Tue Jul  6 11:18:48 2004//TSRC680_m108
/DockingEvent.idl/1.2/Tue Jul  6 11:19:01 2004//TSRC680_m108
/EndDockingEvent.idl/1.2/Tue Jul  6 11:19:12 2004//TSRC680_m108
/EndPopupModeEvent.idl/1.2/Tue Jul  6 11:19:25 2004//TSRC680_m108
/EnhancedMouseEvent.idl/1.4/Thu Sep  9 15:43:19 2004//TSRC680_m108
/FocusChangeReason.idl/1.9/Thu Jun  3 17:04:26 2004//TSRC680_m108
/FocusEvent.idl/1.9/Thu Jun  3 17:04:42 2004//TSRC680_m108
/FontDescriptor.idl/1.10/Thu Jun  3 17:04:56 2004//TSRC680_m108
/FontEmphasisMark.idl/1.7/Thu Jun  3 17:05:14 2004//TSRC680_m108
/FontFamily.idl/1.9/Thu Jun  3 17:05:28 2004//TSRC680_m108
/FontPitch.idl/1.9/Thu Jun  3 17:05:43 2004//TSRC680_m108
/FontRelief.idl/1.6/Thu Jun  3 17:05:56 2004//TSRC680_m108
/FontSlant.idl/1.9/Thu Jun  3 17:06:15 2004//TSRC680_m108
/FontStrikeout.idl/1.9/Thu Jun  3 17:06:29 2004//TSRC680_m108
/FontType.idl/1.9/Thu Jun  3 17:06:43 2004//TSRC680_m108
/FontUnderline.idl/1.9/Thu Jun  3 17:06:57 2004//TSRC680_m108
/FontWeight.idl/1.9/Thu Jun  3 17:07:10 2004//TSRC680_m108
/FontWidth.idl/1.9/Thu Jun  3 17:07:28 2004//TSRC680_m108
/Gradient.idl/1.10/Thu Jun  3 17:07:42 2004//TSRC680_m108
/GradientStyle.idl/1.9/Thu Jun  3 17:07:56 2004//TSRC680_m108
/ImageAlign.idl/1.7/Thu Jun  3 17:08:10 2004//TSRC680_m108
/ImagePosition.idl/1.2/Mon Jul  5 15:59:24 2004//TSRC680_m108
/ImageStatus.idl/1.9/Thu Jun  3 17:08:27 2004//TSRC680_m108
/InputEvent.idl/1.9/Thu Jun  3 17:08:42 2004//TSRC680_m108
/InvalidateStyle.idl/1.9/Thu Jun  3 17:08:56 2004//TSRC680_m108
/ItemEvent.idl/1.9/Thu Jun  3 17:09:11 2004//TSRC680_m108
/Key.idl/1.9/Thu Jun  3 17:09:26 2004//TSRC680_m108
/KeyEvent.idl/1.9/Thu Jun  3 17:09:40 2004//TSRC680_m108
/KeyFunction.idl/1.9/Thu Jun  3 17:09:55 2004//TSRC680_m108
/KeyGroup.idl/1.9/Thu Jun  3 17:10:10 2004//TSRC680_m108
/KeyModifier.idl/1.9/Thu Jun  3 17:10:24 2004//TSRC680_m108
/KeyStroke.idl/1.6/Thu Sep  9 15:43:30 2004//TSRC680_m108
/LineEndFormat.idl/1.2/Mon May 10 13:17:28 2004//TSRC680_m108
/MenuEvent.idl/1.9/Thu Jun  3 17:10:58 2004//TSRC680_m108
/MenuItemStyle.idl/1.9/Thu Jun  3 17:11:13 2004//TSRC680_m108
/MessageBoxCommand.idl/1.9/Thu Jun  3 17:11:27 2004//TSRC680_m108
/MouseButton.idl/1.9/Thu Jun  3 17:11:46 2004//TSRC680_m108
/MouseEvent.idl/1.10/Thu Mar 10 17:37:28 2005//TSRC680_m108
/PaintEvent.idl/1.9/Thu Jun  3 17:12:21 2004//TSRC680_m108
/Point.idl/1.9/Thu Jun  3 17:12:37 2004//TSRC680_m108
/PopupMenuDirection.idl/1.9/Thu Jun  3 17:12:52 2004//TSRC680_m108
/PosSize.idl/1.5/Thu Jun  3 17:13:10 2004//TSRC680_m108
/PrinterException.idl/1.9/Thu Jun  3 17:13:33 2004//TSRC680_m108
/PushButtonType.idl/1.7/Thu Jun  3 17:13:52 2004//TSRC680_m108
/RasterOperation.idl/1.7/Thu Jun  3 17:14:07 2004//TSRC680_m108
/Rectangle.idl/1.9/Thu Jun  3 17:14:24 2004//TSRC680_m108
/RoadmapItem.idl/1.2/Wed May 19 14:04:43 2004//TSRC680_m108
/ScrollBarOrientation.idl/1.5/Thu Jun  3 17:14:39 2004//TSRC680_m108
/Selection.idl/1.9/Thu Jun  3 17:14:55 2004//TSRC680_m108
/SimpleFontMetric.idl/1.9/Thu Jun  3 17:15:10 2004//TSRC680_m108
/Size.idl/1.9/Thu Jun  3 17:15:23 2004//TSRC680_m108
/SpinEvent.idl/1.6/Thu Jun  3 17:15:37 2004//TSRC680_m108
/Style.idl/1.9/Thu Jun  3 17:15:56 2004//TSRC680_m108
/SystemDependentXWindow.idl/1.9/Thu Jun  3 17:16:09 2004//TSRC680_m108
/SystemPointer.idl/1.9/Thu Jun  3 17:16:25 2004//TSRC680_m108
/TabController.idl/1.6/Thu Jun  3 17:16:41 2004//TSRC680_m108
/TabControllerModel.idl/1.10/Thu Jun  3 17:16:56 2004//TSRC680_m108
/TextAlign.idl/1.9/Thu Jun  3 17:17:11 2004//TSRC680_m108
/TextEvent.idl/1.9/Thu Jun  3 17:17:24 2004//TSRC680_m108
/Toolkit.idl/1.11/Thu Jun  3 17:17:38 2004//TSRC680_m108
/UnoControl.idl/1.7/Thu Sep  9 15:43:42 2004//TSRC680_m108
/UnoControlButton.idl/1.6/Thu Jun  3 17:18:09 2004//TSRC680_m108
/UnoControlButtonModel.idl/1.12/Sun Jun 12 14:22:36 2005//TSRC680_m108
/UnoControlCheckBox.idl/1.6/Thu Jun  3 17:18:39 2004//TSRC680_m108
/UnoControlCheckBoxModel.idl/1.10/Sun Jun 12 14:22:36 2005//TSRC680_m108
/UnoControlComboBox.idl/1.7/Thu Jun  3 17:19:07 2004//TSRC680_m108
/UnoControlComboBoxModel.idl/1.10/Sun Jun 12 14:22:36 2005//TSRC680_m108
/UnoControlContainer.idl/1.6/Thu Jun  3 17:19:33 2004//TSRC680_m108
/UnoControlContainerModel.idl/1.9/Thu Sep  9 15:44:16 2004//TSRC680_m108
/UnoControlCurrencyField.idl/1.11/Thu Sep  9 15:44:28 2004//TSRC680_m108
/UnoControlCurrencyFieldModel.idl/1.14/Sun Jun 12 14:22:36 2005//TSRC680_m108
/UnoControlDateField.idl/1.9/Thu Sep  9 15:44:51 2004//TSRC680_m108
/UnoControlDateFieldModel.idl/1.10/Sun Jun 12 14:22:36 2005//TSRC680_m108
/UnoControlDialog.idl/1.6/Thu Jun  3 17:21:07 2004//TSRC680_m108
/UnoControlDialogElement.idl/1.3/Thu Jun  3 17:21:20 2004//TSRC680_m108
/UnoControlDialogModel.idl/1.9/Sun Jun 12 14:22:36 2005//TSRC680_m108
/UnoControlEdit.idl/1.7/Thu Jun  3 17:21:50 2004//TSRC680_m108
/UnoControlEditModel.idl/1.13/Sun Jun 12 14:22:36 2005//TSRC680_m108
/UnoControlFileControl.idl/1.5/Thu Jun  3 17:22:22 2004//TSRC680_m108
/UnoControlFileControlModel.idl/1.11/Sun Jun 12 14:22:36 2005//TSRC680_m108
/UnoControlFixedLine.idl/1.4/Thu Jun  3 17:22:52 2004//TSRC680_m108
/UnoControlFixedLineModel.idl/1.6/Sun Jun 12 14:22:36 2005//TSRC680_m108
/UnoControlFixedText.idl/1.6/Thu Jun  3 17:23:21 2004//TSRC680_m108
/UnoControlFixedTextModel.idl/1.13/Sun Jun 12 14:22:36 2005//TSRC680_m108
/UnoControlFormattedField.idl/1.8/Thu Sep  9 15:45:53 2004//TSRC680_m108
/UnoControlFormattedFieldModel.idl/1.12/Sun Jun 12 14:22:36 2005//TSRC680_m108
/UnoControlGroupBox.idl/1.6/Thu Jun  3 17:24:19 2004//TSRC680_m108
/UnoControlGroupBoxModel.idl/1.8/Sun Jun 12 14:22:36 2005//TSRC680_m108
/UnoControlImageControl.idl/1.7/Thu Jun  3 17:24:48 2004//TSRC680_m108
/UnoControlImageControlModel.idl/1.10/Thu Sep  9 15:46:14 2004//TSRC680_m108
/UnoControlListBox.idl/1.6/Thu Jun  3 17:25:17 2004//TSRC680_m108
/UnoControlListBoxModel.idl/1.10/Sun Jun 12 14:22:36 2005//TSRC680_m108
/UnoControlModel.idl/1.6/Thu Jun  3 17:25:44 2004//TSRC680_m108
/UnoControlNumericField.idl/1.11/Thu Sep  9 15:46:38 2004//TSRC680_m108
/UnoControlNumericFieldModel.idl/1.14/Sun Jun 12 14:22:36 2005//TSRC680_m108
/UnoControlPatternField.idl/1.10/Thu Sep  9 15:47:00 2004//TSRC680_m108
/UnoControlPatternFieldModel.idl/1.14/Sun Jun 12 14:22:36 2005//TSRC680_m108
/UnoControlProgressBar.idl/1.4/Thu Jun  3 17:26:54 2004//TSRC680_m108
/UnoControlProgressBarModel.idl/1.7/Thu Sep  9 15:47:22 2004//TSRC680_m108
/UnoControlRadioButton.idl/1.6/Thu Jun  3 17:27:23 2004//TSRC680_m108
/UnoControlRadioButtonModel.idl/1.11/Sun Jun 12 14:22:36 2005//TSRC680_m108
/UnoControlRoadmap.idl/1.2/Wed May 19 14:04:55 2004//TSRC680_m108
/UnoControlRoadmapModel.idl/1.2/Wed May 19 14:05:07 2004//TSRC680_m108
/UnoControlScrollBar.idl/1.4/Thu Jun  3 17:27:49 2004//TSRC680_m108
/UnoControlScrollBarModel.idl/1.9/Sun Jun 12 14:22:36 2005//TSRC680_m108
/UnoControlSpinButton.idl/1.2/Thu Dec 11 12:35:53 2003//TSRC680_m108
/UnoControlSpinButtonModel.idl/1.5/Thu Sep  9 15:47:45 2004//TSRC680_m108
/UnoControlTimeField.idl/1.7/Thu Sep  9 15:47:59 2004//TSRC680_m108
/UnoControlTimeFieldModel.idl/1.10/Sun Jun 12 14:22:36 2005//TSRC680_m108
/VclContainerEvent.idl/1.9/Thu Jun  3 17:28:47 2004//TSRC680_m108
/VclWindowPeerAttribute.idl/1.10/Thu Jun  3 17:29:02 2004//TSRC680_m108
/VisualEffect.idl/1.2/Mon Jul  5 16:04:08 2004//TSRC680_m108
/WindowAttribute.idl/1.11/Thu Jun  3 17:29:15 2004//TSRC680_m108
/WindowClass.idl/1.9/Thu Jun  3 17:29:31 2004//TSRC680_m108
/WindowDescriptor.idl/1.9/Thu Jun  3 17:29:44 2004//TSRC680_m108
/WindowEvent.idl/1.9/Thu Jun  3 17:29:59 2004//TSRC680_m108
/XActionListener.idl/1.6/Thu Jun  3 17:30:12 2004//TSRC680_m108
/XActivateListener.idl/1.10/Thu Jun  3 17:30:26 2004//TSRC680_m108
/XAdjustmentListener.idl/1.6/Thu Jun  3 17:30:42 2004//TSRC680_m108
/XBitmap.idl/1.10/Thu Jun  3 17:31:00 2004//TSRC680_m108
/XButton.idl/1.6/Thu Jun  3 17:31:14 2004//TSRC680_m108
/XCheckBox.idl/1.6/Thu Jun  3 17:31:28 2004//TSRC680_m108
/XComboBox.idl/1.6/Thu Jun  3 17:31:46 2004//TSRC680_m108
/XControl.idl/1.6/Thu Jun  3 17:31:59 2004//TSRC680_m108
/XControlContainer.idl/1.6/Thu Jun  3 17:32:13 2004//TSRC680_m108
/XControlModel.idl/1.10/Thu Jun  3 17:32:28 2004//TSRC680_m108
/XCurrencyField.idl/1.10/Thu Jun  3 17:32:48 2004//TSRC680_m108
/XDataTransferProviderAccess.idl/1.5/Thu Jun  3 17:33:01 2004//TSRC680_m108
/XDateField.idl/1.6/Thu Jun  3 17:33:15 2004//TSRC680_m108
/XDevice.idl/1.11/Thu Jun  3 17:33:29 2004//TSRC680_m108
/XDialog.idl/1.6/Thu Jun  3 17:33:44 2004//TSRC680_m108
/XDialogProvider.idl/1.2/Tue Feb 10 15:54:37 2004//TSRC680_m108
/XDisplayBitmap.idl/1.10/Thu Jun  3 17:33:58 2004//TSRC680_m108
/XDisplayConnection.idl/1.5/Thu Jun  3 17:34:13 2004//TSRC680_m108
/XDockableWindow.idl/1.3/Thu Mar 10 17:37:29 2005//TSRC680_m108
/XDockableWindowListener.idl/1.2/Tue Jul  6 11:19:50 2004//TSRC680_m108
/XEnhancedMouseClickHandler.idl/1.4/Thu Sep  9 15:48:23 2004//TSRC680_m108
/XEventHandler.idl/1.7/Thu Jun  3 17:34:42 2004//TSRC680_m108
/XExtendedToolkit.idl/1.8/Thu Sep  9 15:48:34 2004//TSRC680_m108
/XFileDialog.idl/1.10/Thu Jun  3 17:35:11 2004//TSRC680_m108
/XFixedText.idl/1.6/Thu Jun  3 17:35:25 2004//TSRC680_m108
/XFocusListener.idl/1.10/Thu Jun  3 17:35:39 2004//TSRC680_m108
/XFont.idl/1.10/Thu Jun  3 17:35:56 2004//TSRC680_m108
/XGraphics.idl/1.11/Thu Jun  3 17:36:11 2004//TSRC680_m108
/XImageButton.idl/1.10/Thu Jun  3 17:36:26 2004//TSRC680_m108
/XImageConsumer.idl/1.10/Thu Jun  3 17:36:39 2004//TSRC680_m108
/XImageProducer.idl/1.10/Thu Jun  3 17:36:55 2004//TSRC680_m108
/XInfoPrinter.idl/1.10/Thu Jun  3 17:37:13 2004//TSRC680_m108
/XItemEventBroadcaster.idl/1.2/Wed May 19 14:05:19 2004//TSRC680_m108
/XItemListener.idl/1.6/Thu Jun  3 17:37:26 2004//TSRC680_m108
/XKeyHandler.idl/1.5/Thu Sep  9 15:48:45 2004//TSRC680_m108
/XKeyListener.idl/1.10/Thu Jun  3 17:37:57 2004//TSRC680_m108
/XLayoutConstrains.idl/1.6/Thu Jun  3 17:38:11 2004//TSRC680_m108
/XListBox.idl/1.6/Thu Jun  3 17:38:25 2004//TSRC680_m108
/XMenu.idl/1.10/Thu Jun  3 17:38:38 2004//TSRC680_m108
/XMenuBar.idl/1.10/Thu Jun  3 17:38:52 2004//TSRC680_m108
/XMenuExtended.idl/1.2/Wed Feb 25 16:55:08 2004//TSRC680_m108
/XMenuListener.idl/1.10/Thu Jun  3 17:39:10 2004//TSRC680_m108
/XMessageBox.idl/1.10/Thu Jun  3 17:39:23 2004//TSRC680_m108
/XMouseClickHandler.idl/1.6/Thu Sep  9 15:48:56 2004//TSRC680_m108
/XMouseListener.idl/1.11/Thu Mar 10 17:37:29 2005//TSRC680_m108
/XMouseMotionListener.idl/1.10/Thu Jun  3 17:40:08 2004//TSRC680_m108
/XNumericField.idl/1.10/Thu Jun  3 17:40:21 2004//TSRC680_m108
/XPaintListener.idl/1.10/Thu Jun  3 17:40:36 2004//TSRC680_m108
/XPatternField.idl/1.10/Thu Jun  3 17:40:50 2004//TSRC680_m108
/XPointer.idl/1.10/Thu Jun  3 17:41:07 2004//TSRC680_m108
/XPopupMenu.idl/1.10/Thu Jun  3 17:41:21 2004//TSRC680_m108
/XPrinter.idl/1.11/Thu Jun  3 17:41:35 2004//TSRC680_m108
/XPrinterPropertySet.idl/1.10/Thu Jun  3 17:41:50 2004//TSRC680_m108
/XPrinterServer.idl/1.10/Thu Jun  3 17:42:03 2004//TSRC680_m108
/XProgressBar.idl/1.7/Thu Jun  3 17:42:19 2004//TSRC680_m108
/XProgressMonitor.idl/1.10/Thu Jun  3 17:42:33 2004//TSRC680_m108
/XRadioButton.idl/1.6/Thu Jun  3 17:42:47 2004//TSRC680_m108
/XRegion.idl/1.10/Thu Jun  3 17:43:01 2004//TSRC680_m108
/XReschedule.idl/1.2/Tue Mar  8 15:56:34 2005//TSRC680_m108
/XScrollBar.idl/1.6/Thu Jun  3 17:43:18 2004//TSRC680_m108
/XSpinField.idl/1.7/Thu Jun  3 17:43:31 2004//TSRC680_m108
/XSpinListener.idl/1.7/Thu Jun  3 17:43:44 2004//TSRC680_m108
/XSpinValue.idl/1.2/Thu Dec 11 12:36:22 2003//TSRC680_m108
/XSystemChildFactory.idl/1.5/Thu Jun  3 17:43:58 2004//TSRC680_m108
/XSystemDependentMenuPeer.idl/1.2/Wed Feb 25 16:55:20 2004//TSRC680_m108
/XSystemDependentWindowPeer.idl/1.10/Thu Jun  3 17:44:11 2004//TSRC680_m108
/XTabController.idl/1.7/Thu Jun  3 17:44:27 2004//TSRC680_m108
/XTabControllerModel.idl/1.10/Thu Jun  3 17:44:40 2004//TSRC680_m108
/XTextArea.idl/1.10/Thu Jun  3 17:44:55 2004//TSRC680_m108
/XTextComponent.idl/1.7/Thu Jun  3 17:45:08 2004//TSRC680_m108
/XTextEditField.idl/1.10/Thu Jun  3 17:45:26 2004//TSRC680_m108
/XTextLayoutConstrains.idl/1.6/Thu Jun  3 17:45:40 2004//TSRC680_m108
/XTextListener.idl/1.10/Thu Jun  3 17:45:56 2004//TSRC680_m108
/XTimeField.idl/1.7/Thu Jun  3 17:46:09 2004//TSRC680_m108
/XToolkit.idl/1.11/Thu Jun  3 17:46:26 2004//TSRC680_m108
/XTopWindow.idl/1.6/Thu Jun  3 17:46:39 2004//TSRC680_m108
/XTopWindowListener.idl/1.6/Thu Jun  3 17:46:54 2004//TSRC680_m108
/XUnoControlContainer.idl/1.6/Thu Jun  3 17:47:09 2004//TSRC680_m108
/XUserInputInterception.idl/1.6/Thu Sep  9 15:49:11 2004//TSRC680_m108
/XVclContainer.idl/1.10/Thu Jun  3 17:47:42 2004//TSRC680_m108
/XVclContainerListener.idl/1.10/Thu Jun  3 17:47:56 2004//TSRC680_m108
/XVclContainerPeer.idl/1.10/Thu Jun  3 17:48:09 2004//TSRC680_m108
/XVclWindowPeer.idl/1.11/Thu Jun  3 17:48:24 2004//TSRC680_m108
/XView.idl/1.7/Thu Jun  3 17:48:39 2004//TSRC680_m108
/XWindow.idl/1.6/Thu Jun  3 17:48:53 2004//TSRC680_m108
/XWindow2.idl/1.2/Thu Sep  9 15:49:20 2004//TSRC680_m108
/XWindowListener.idl/1.7/Thu Mar 10 17:37:29 2005//TSRC680_m108
/XWindowPeer.idl/1.11/Thu Jun  3 17:49:38 2004//TSRC680_m108
/makefile.mk/1.32/Sun Jun 12 14:22:37 2005//TSRC680_m108
D
